sensor_id;sensor_type;location;lat;lon;timestamp;temperature;humidity
11093;DHT22;5600;50.864;6.102;2022-10-17T00:02:06;13.00;99.90
11093;DHT22;5600;50.864;6.102;2022-10-17T00:05:07;13.00;99.90
11093;DHT22;5600;50.864;6.102;2022-10-17T00:08:10;13.00;99.90
11093;DHT22;5600;50.864;6.102;2022-10-17T00:11:16;13.10;99.90
11093;DHT22;5600;50.864;6.102;2022-10-17T00:14:17;13.00;99.90
11093;DHT22;5600;50.864;6.102;2022-10-17T00:17:18;13.00;99.90
11093;DHT22;5600;50.864;6.102;2022-10-17T00:20:19;13.00;99.90
11093;DHT22;5600;50.864;6.102;2022-10-17T00:23:19;13.00;99.90
11093;DHT22;5600;50.864;6.102;2022-10-17T00:26:20;13.00;99.90
11093;DHT22;5600;50.864;6.102;2022-10-17T00:29:21;13.10;99.90
11093;DHT22;5600;50.864;6.102;2022-10-17T00:32:22;13.20;99.90
11093;DHT22;5600;50.864;6.102;2022-10-17T00:35:22;13.30;99.90
11093;DHT22;5600;50.864;6.102;2022-10-17T00:38:23;13.20;99.90
11093;DHT22;5600;50.864;6.102;2022-10-17T00:41:27;13.20;99.90
11093;DHT22;5600;50.864;6.102;2022-10-17T00:47:29;13.20;99.90
11093;DHT22;5600;50.864;6.102;2022-10-17T00:50:30;13.10;99.90
11093;DHT22;5600;50.864;6.102;2022-10-17T00:53:32;13.20;99.90
11093;DHT22;5600;50.864;6.102;2022-10-17T00:56:34;13.20;99.90
11093;DHT22;5600;50.864;6.102;2022-10-17T00:59:37;13.20;99.90
11093;DHT22;5600;50.864;6.102;2022-10-17T01:02:39;13.60;99.90
11093;DHT22;5600;50.864;6.102;2022-10-17T01:05:41;13.30;99.90
11093;DHT22;5600;50.864;6.102;2022-10-17T01:08:42;13.30;99.90
11093;DHT22;5600;50.864;6.102;2022-10-17T01:12:12;13.40;99.90
11093;DHT22;5600;50.864;6.102;2022-10-17T01:28:47;13.60;99.90
11093;DHT22;5600;50.864;6.102;2022-10-17T01:32:20;13.60;99.90
11093;DHT22;5600;50.864;6.102;2022-10-17T01:35:34;13.50;99.90
11093;DHT22;5600;50.864;6.102;2022-10-17T01:38:48;13.60;99.90
11093;DHT22;5600;50.864;6.102;2022-10-17T01:42:02;13.60;99.90
11093;DHT22;5600;50.864;6.102;2022-10-17T01:45:15;13.60;99.90
11093;DHT22;5600;50.864;6.102;2022-10-17T01:48:21;13.70;99.90
11093;DHT22;5600;50.864;6.102;2022-10-17T01:54:42;13.70;99.90
11093;DHT22;5600;50.864;6.102;2022-10-17T01:58:04;13.70;99.90
11093;DHT22;5600;50.864;6.102;2022-10-17T02:01:07;13.80;99.90
11093;DHT22;5600;50.864;6.102;2022-10-17T02:04:10;13.70;99.90
11093;DHT22;5600;50.864;6.102;2022-10-17T02:07:12;13.70;99.90
11093;DHT22;5600;50.864;6.102;2022-10-17T02:10:20;13.70;99.90
11093;DHT22;5600;50.864;6.102;2022-10-17T02:17:08;13.70;99.90
11093;DHT22;5600;50.864;6.102;2022-10-17T02:23:26;13.80;99.90
11093;DHT22;5600;50.864;6.102;2022-10-17T02:33:34;13.70;99.90
11093;DHT22;5600;50.864;6.102;2022-10-17T02:36:47;13.70;99.90
11093;DHT22;5600;50.864;6.102;2022-10-17T02:39:49;13.70;99.90
11093;DHT22;5600;50.864;6.102;2022-10-17T02:42:52;13.70;99.90
11093;DHT22;5600;50.864;6.102;2022-10-17T02:45:55;13.90;99.90
11093;DHT22;5600;50.864;6.102;2022-10-17T02:49:00;14.10;99.90
11093;DHT22;5600;50.864;6.102;2022-10-17T02:52:27;14.30;99.90
11093;DHT22;5600;50.864;6.102;2022-10-17T02:55:33;14.70;99.90
11093;DHT22;5600;50.864;6.102;2022-10-17T02:58:37;15.00;99.90
11093;DHT22;5600;50.864;6.102;2022-10-17T03:01:39;15.40;99.90
11093;DHT22;5600;50.864;6.102;2022-10-17T03:04:44;15.40;99.90
11093;DHT22;5600;50.864;6.102;2022-10-17T03:07:45;15.60;99.90
11093;DHT22;5600;50.864;6.102;2022-10-17T03:10:47;15.90;99.90
11093;DHT22;5600;50.864;6.102;2022-10-17T03:13:48;15.90;99.90
11093;DHT22;5600;50.864;6.102;2022-10-17T03:16:50;16.10;99.90
11093;DHT22;5600;50.864;6.102;2022-10-17T03:19:52;16.30;99.90
11093;DHT22;5600;50.864;6.102;2022-10-17T03:22:52;16.40;99.90
11093;DHT22;5600;50.864;6.102;2022-10-17T03:25:53;16.50;99.90
11093;DHT22;5600;50.864;6.102;2022-10-17T03:28:54;16.60;99.90
11093;DHT22;5600;50.864;6.102;2022-10-17T03:31:55;16.80;99.90
11093;DHT22;5600;50.864;6.102;2022-10-17T03:34:56;16.90;99.90
11093;DHT22;5600;50.864;6.102;2022-10-17T03:37:57;17.00;99.90
11093;DHT22;5600;50.864;6.102;2022-10-17T03:41:01;17.10;99.90
11093;DHT22;5600;50.864;6.102;2022-10-17T03:44:03;17.10;99.90
11093;DHT22;5600;50.864;6.102;2022-10-17T03:47:04;17.20;99.90
11093;DHT22;5600;50.864;6.102;2022-10-17T03:50:05;17.20;99.90
11093;DHT22;5600;50.864;6.102;2022-10-17T03:53:09;17.30;99.90
11093;DHT22;5600;50.864;6.102;2022-10-17T03:56:20;17.40;99.90
11093;DHT22;5600;50.864;6.102;2022-10-17T03:59:28;17.50;99.90
11093;DHT22;5600;50.864;6.102;2022-10-17T04:02:36;17.60;99.90
11093;DHT22;5600;50.864;6.102;2022-10-17T04:05:37;17.60;99.90
11093;DHT22;5600;50.864;6.102;2022-10-17T04:08:38;17.60;99.90
11093;DHT22;5600;50.864;6.102;2022-10-17T04:11:44;17.60;99.90
11093;DHT22;5600;50.864;6.102;2022-10-17T04:14:46;17.60;99.90
11093;DHT22;5600;50.864;6.102;2022-10-17T04:17:48;17.60;99.90
11093;DHT22;5600;50.864;6.102;2022-10-17T04:20:48;17.60;99.90
11093;DHT22;5600;50.864;6.102;2022-10-17T04:23:53;17.60;99.90
11093;DHT22;5600;50.864;6.102;2022-10-17T04:27:07;17.60;99.90
11093;DHT22;5600;50.864;6.102;2022-10-17T04:30:11;17.60;99.90
11093;DHT22;5600;50.864;6.102;2022-10-17T04:33:13;17.60;99.90
11093;DHT22;5600;50.864;6.102;2022-10-17T04:36:16;17.60;99.90
11093;DHT22;5600;50.864;6.102;2022-10-17T04:39:17;17.60;99.90
11093;DHT22;5600;50.864;6.102;2022-10-17T04:42:19;17.60;99.90
11093;DHT22;5600;50.864;6.102;2022-10-17T04:45:20;17.60;99.90
11093;DHT22;5600;50.864;6.102;2022-10-17T04:48:25;17.50;99.90
11093;DHT22;5600;50.864;6.102;2022-10-17T04:51:25;17.50;99.90
11093;DHT22;5600;50.864;6.102;2022-10-17T04:54:43;17.50;99.90
11093;DHT22;5600;50.864;6.102;2022-10-17T04:57:46;17.50;99.90
11093;DHT22;5600;50.864;6.102;2022-10-17T05:00:53;17.50;99.90
11093;DHT22;5600;50.864;6.102;2022-10-17T05:03:57;17.50;99.90
11093;DHT22;5600;50.864;6.102;2022-10-17T05:06:57;17.50;99.90
11093;DHT22;5600;50.864;6.102;2022-10-17T05:10:16;17.60;99.90
11093;DHT22;5600;50.864;6.102;2022-10-17T05:13:19;17.60;99.90
11093;DHT22;5600;50.864;6.102;2022-10-17T05:16:21;17.60;99.90
11093;DHT22;5600;50.864;6.102;2022-10-17T05:19:23;17.60;99.90
11093;DHT22;5600;50.864;6.102;2022-10-17T05:22:25;17.50;99.90
11093;DHT22;5600;50.864;6.102;2022-10-17T05:25:25;17.50;99.90
11093;DHT22;5600;50.864;6.102;2022-10-17T05:28:26;17.50;99.90
11093;DHT22;5600;50.864;6.102;2022-10-17T05:31:31;17.40;99.90
11093;DHT22;5600;50.864;6.102;2022-10-17T05:34:33;17.40;99.90
11093;DHT22;5600;50.864;6.102;2022-10-17T05:37:34;17.40;99.90
11093;DHT22;5600;50.864;6.102;2022-10-17T05:40:36;17.40;99.90
11093;DHT22;5600;50.864;6.102;2022-10-17T05:43:38;17.40;99.90
11093;DHT22;5600;50.864;6.102;2022-10-17T05:46:39;17.30;99.90
11093;DHT22;5600;50.864;6.102;2022-10-17T05:49:40;17.30;99.90
11093;DHT22;5600;50.864;6.102;2022-10-17T05:52:41;17.30;99.90
11093;DHT22;5600;50.864;6.102;2022-10-17T05:55:57;17.20;99.90
11093;DHT22;5600;50.864;6.102;2022-10-17T05:58:58;17.20;99.90
11093;DHT22;5600;50.864;6.102;2022-10-17T06:02:08;17.90;99.90
11093;DHT22;5600;50.864;6.102;2022-10-17T06:05:09;17.20;99.90
11093;DHT22;5600;50.864;6.102;2022-10-17T06:08:10;17.20;99.90
11093;DHT22;5600;50.864;6.102;2022-10-17T06:11:12;17.20;99.90
11093;DHT22;5600;50.864;6.102;2022-10-17T06:14:13;17.30;99.90
11093;DHT22;5600;50.864;6.102;2022-10-17T06:17:15;17.30;99.90
11093;DHT22;5600;50.864;6.102;2022-10-17T06:20:17;17.40;99.90
11093;DHT22;5600;50.864;6.102;2022-10-17T06:23:18;17.40;99.90
11093;DHT22;5600;50.864;6.102;2022-10-17T06:26:29;17.40;99.90
11093;DHT22;5600;50.864;6.102;2022-10-17T06:29:31;17.40;99.90
11093;DHT22;5600;50.864;6.102;2022-10-17T06:32:31;17.40;99.90
11093;DHT22;5600;50.864;6.102;2022-10-17T06:35:33;17.40;99.90
11093;DHT22;5600;50.864;6.102;2022-10-17T06:38:34;17.40;99.90
11093;DHT22;5600;50.864;6.102;2022-10-17T06:41:38;17.40;99.90
11093;DHT22;5600;50.864;6.102;2022-10-17T06:44:42;17.40;99.90
11093;DHT22;5600;50.864;6.102;2022-10-17T06:48:07;17.40;99.90
11093;DHT22;5600;50.864;6.102;2022-10-17T06:51:33;17.50;99.90
11093;DHT22;5600;50.864;6.102;2022-10-17T06:54:35;17.50;99.90
11093;DHT22;5600;50.864;6.102;2022-10-17T06:57:45;17.50;99.90
11093;DHT22;5600;50.864;6.102;2022-10-17T07:01:10;17.50;99.90
11093;DHT22;5600;50.864;6.102;2022-10-17T07:04:11;17.60;99.90
11093;DHT22;5600;50.864;6.102;2022-10-17T07:07:12;17.70;99.90
11093;DHT22;5600;50.864;6.102;2022-10-17T07:10:13;17.70;99.90
11093;DHT22;5600;50.864;6.102;2022-10-17T07:13:15;17.80;99.90
11093;DHT22;5600;50.864;6.102;2022-10-17T07:16:16;17.80;99.90
11093;DHT22;5600;50.864;6.102;2022-10-17T07:19:20;17.90;99.90
11093;DHT22;5600;50.864;6.102;2022-10-17T07:22:21;18.10;99.90
11093;DHT22;5600;50.864;6.102;2022-10-17T07:25:25;18.20;99.90
11093;DHT22;5600;50.864;6.102;2022-10-17T07:28:30;18.40;99.90
11093;DHT22;5600;50.864;6.102;2022-10-17T07:31:37;18.50;99.90
11093;DHT22;5600;50.864;6.102;2022-10-17T07:34:38;18.50;99.90
11093;DHT22;5600;50.864;6.102;2022-10-17T07:37:40;18.60;99.90
11093;DHT22;5600;50.864;6.102;2022-10-17T07:40:41;18.70;99.90
11093;DHT22;5600;50.864;6.102;2022-10-17T07:43:42;18.80;99.90
11093;DHT22;5600;50.864;6.102;2022-10-17T07:46:43;19.00;99.90
11093;DHT22;5600;50.864;6.102;2022-10-17T07:49:44;19.30;99.90
11093;DHT22;5600;50.864;6.102;2022-10-17T07:52:45;19.60;99.90
11093;DHT22;5600;50.864;6.102;2022-10-17T07:55:46;19.90;99.90
11093;DHT22;5600;50.864;6.102;2022-10-17T07:58:49;20.20;99.90
11093;DHT22;5600;50.864;6.102;2022-10-17T08:01:50;20.30;99.90
11093;DHT22;5600;50.864;6.102;2022-10-17T08:04:54;20.30;99.90
11093;DHT22;5600;50.864;6.102;2022-10-17T08:07:55;20.40;99.90
11093;DHT22;5600;50.864;6.102;2022-10-17T08:11:01;20.50;99.90
11093;DHT22;5600;50.864;6.102;2022-10-17T08:14:02;20.40;99.90
11093;DHT22;5600;50.864;6.102;2022-10-17T08:17:03;20.30;99.90
11093;DHT22;5600;50.864;6.102;2022-10-17T08:20:05;20.40;99.90
11093;DHT22;5600;50.864;6.102;2022-10-17T08:23:06;20.40;99.90
11093;DHT22;5600;50.864;6.102;2022-10-17T08:26:08;20.50;99.90
11093;DHT22;5600;50.864;6.102;2022-10-17T08:29:14;20.30;99.90
11093;DHT22;5600;50.864;6.102;2022-10-17T08:32:15;20.30;99.90
11093;DHT22;5600;50.864;6.102;2022-10-17T08:35:16;20.20;99.90
11093;DHT22;5600;50.864;6.102;2022-10-17T08:38:16;20.30;99.90
11093;DHT22;5600;50.864;6.102;2022-10-17T08:48:40;20.60;99.90
11093;DHT22;5600;50.864;6.102;2022-10-17T08:51:48;20.80;99.90
11093;DHT22;5600;50.864;6.102;2022-10-17T08:54:50;20.80;99.90
11093;DHT22;5600;50.864;6.102;2022-10-17T08:57:51;20.90;99.90
11093;DHT22;5600;50.864;6.102;2022-10-17T09:07:49;20.60;99.90
11093;DHT22;5600;50.864;6.102;2022-10-17T09:10:56;20.60;99.90
11093;DHT22;5600;50.864;6.102;2022-10-17T09:17:29;20.60;99.90
11093;DHT22;5600;50.864;6.102;2022-10-17T09:20:39;20.50;99.90
11093;DHT22;5600;50.864;6.102;2022-10-17T09:23:52;20.50;99.90
11093;DHT22;5600;50.864;6.102;2022-10-17T09:26:55;20.50;99.90
11093;DHT22;5600;50.864;6.102;2022-10-17T09:30:29;20.30;99.90
11093;DHT22;5600;50.864;6.102;2022-10-17T09:33:41;20.30;99.90
11093;DHT22;5600;50.864;6.102;2022-10-17T09:36:42;20.20;99.90
11093;DHT22;5600;50.864;6.102;2022-10-17T09:39:43;20.30;99.90
11093;DHT22;5600;50.864;6.102;2022-10-17T09:42:46;20.20;99.90
11093;DHT22;5600;50.864;6.102;2022-10-17T09:46:09;20.10;99.90
11093;DHT22;5600;50.864;6.102;2022-10-17T09:49:17;20.10;99.90
11093;DHT22;5600;50.864;6.102;2022-10-17T09:52:24;20.00;99.90
11093;DHT22;5600;50.864;6.102;2022-10-17T09:55:36;19.90;99.90
11093;DHT22;5600;50.864;6.102;2022-10-17T09:58:45;19.90;99.90
11093;DHT22;5600;50.864;6.102;2022-10-17T10:01:46;19.90;99.90
11093;DHT22;5600;50.864;6.102;2022-10-17T10:05:18;19.90;99.90
11093;DHT22;5600;50.864;6.102;2022-10-17T10:08:20;19.90;99.90
11093;DHT22;5600;50.864;6.102;2022-10-17T10:11:25;20.00;99.90
11093;DHT22;5600;50.864;6.102;2022-10-17T10:14:43;20.20;99.90
11093;DHT22;5600;50.864;6.102;2022-10-17T10:17:45;20.10;99.90
11093;DHT22;5600;50.864;6.102;2022-10-17T10:20:46;20.20;99.90
11093;DHT22;5600;50.864;6.102;2022-10-17T10:24:26;20.10;99.90
11093;DHT22;5600;50.864;6.102;2022-10-17T10:27:28;20.10;99.90
11093;DHT22;5600;50.864;6.102;2022-10-17T10:30:29;20.00;99.90
11093;DHT22;5600;50.864;6.102;2022-10-17T10:33:33;20.00;99.90
11093;DHT22;5600;50.864;6.102;2022-10-17T10:36:50;20.00;99.90
11093;DHT22;5600;50.864;6.102;2022-10-17T10:39:54;20.00;99.90
11093;DHT22;5600;50.864;6.102;2022-10-17T10:42:58;20.00;99.90
11093;DHT22;5600;50.864;6.102;2022-10-17T10:45:59;20.00;99.90
11093;DHT22;5600;50.864;6.102;2022-10-17T10:49:02;20.00;99.90
11093;DHT22;5600;50.864;6.102;2022-10-17T10:52:03;20.10;99.90
11093;DHT22;5600;50.864;6.102;2022-10-17T10:55:17;20.10;99.90
11093;DHT22;5600;50.864;6.102;2022-10-17T10:58:54;20.10;99.90
11093;DHT22;5600;50.864;6.102;2022-10-17T11:05:35;20.40;99.90
11093;DHT22;5600;50.864;6.102;2022-10-17T11:09:49;20.50;99.90
11093;DHT22;5600;50.864;6.102;2022-10-17T11:18:44;21.20;99.90
11093;DHT22;5600;50.864;6.102;2022-10-17T11:24:57;21.40;99.90
11093;DHT22;5600;50.864;6.102;2022-10-17T11:27:59;21.40;99.90
11093;DHT22;5600;50.864;6.102;2022-10-17T11:31:12;21.50;99.90
11093;DHT22;5600;50.864;6.102;2022-10-17T11:34:25;21.50;99.90
11093;DHT22;5600;50.864;6.102;2022-10-17T11:37:31;21.50;99.90
11093;DHT22;5600;50.864;6.102;2022-10-17T11:40:35;21.30;99.90
11093;DHT22;5600;50.864;6.102;2022-10-17T11:43:49;21.30;99.90
11093;DHT22;5600;50.864;6.102;2022-10-17T11:50:41;21.40;99.90
11093;DHT22;5600;50.864;6.102;2022-10-17T12:07:07;21.30;99.90
11093;DHT22;5600;50.864;6.102;2022-10-17T12:10:48;21.30;99.90
11093;DHT22;5600;50.864;6.102;2022-10-17T12:13:53;21.30;99.90
11093;DHT22;5600;50.864;6.102;2022-10-17T12:16:54;21.30;99.90
11093;DHT22;5600;50.864;6.102;2022-10-17T12:23:29;21.20;99.90
11093;DHT22;5600;50.864;6.102;2022-10-17T12:26:30;21.20;99.90
11093;DHT22;5600;50.864;6.102;2022-10-17T12:29:31;21.20;99.90
11093;DHT22;5600;50.864;6.102;2022-10-17T12:32:32;21.10;99.90
11093;DHT22;5600;50.864;6.102;2022-10-17T12:35:36;21.10;99.90
11093;DHT22;5600;50.864;6.102;2022-10-17T12:38:37;21.00;99.90
11093;DHT22;5600;50.864;6.102;2022-10-17T12:44:38;21.10;99.90
11093;DHT22;5600;50.864;6.102;2022-10-17T12:47:39;21.10;99.90
11093;DHT22;5600;50.864;6.102;2022-10-17T12:51:00;21.10;99.90
11093;DHT22;5600;50.864;6.102;2022-10-17T12:54:10;21.10;99.90
11093;DHT22;5600;50.864;6.102;2022-10-17T13:00:41;21.00;99.90
11093;DHT22;5600;50.864;6.102;2022-10-17T13:03:46;20.90;99.90
11093;DHT22;5600;50.864;6.102;2022-10-17T13:06:51;20.90;99.90
11093;DHT22;5600;50.864;6.102;2022-10-17T13:09:53;20.90;99.90
11093;DHT22;5600;50.864;6.102;2022-10-17T13:13:17;20.80;99.90
11093;DHT22;5600;50.864;6.102;2022-10-17T13:16:29;20.70;99.90
11093;DHT22;5600;50.864;6.102;2022-10-17T13:19:42;20.70;99.90
11093;DHT22;5600;50.864;6.102;2022-10-17T13:22:44;20.60;99.90
11093;DHT22;5600;50.864;6.102;2022-10-17T13:25:45;20.80;99.90
11093;DHT22;5600;50.864;6.102;2022-10-17T13:29:10;20.80;99.90
11093;DHT22;5600;50.864;6.102;2022-10-17T13:32:11;20.80;99.90
11093;DHT22;5600;50.864;6.102;2022-10-17T13:35:15;20.80;99.90
11093;DHT22;5600;50.864;6.102;2022-10-17T13:38:25;20.70;99.90
11093;DHT22;5600;50.864;6.102;2022-10-17T13:41:28;20.70;99.90
11093;DHT22;5600;50.864;6.102;2022-10-17T13:44:32;20.70;99.90
11093;DHT22;5600;50.864;6.102;2022-10-17T13:47:36;20.70;99.90
11093;DHT22;5600;50.864;6.102;2022-10-17T13:50:40;20.70;99.90
11093;DHT22;5600;50.864;6.102;2022-10-17T13:53:41;20.70;99.90
11093;DHT22;5600;50.864;6.102;2022-10-17T13:56:44;20.70;99.90
11093;DHT22;5600;50.864;6.102;2022-10-17T13:59:49;20.70;99.90
11093;DHT22;5600;50.864;6.102;2022-10-17T14:02:50;20.70;99.90
11093;DHT22;5600;50.864;6.102;2022-10-17T14:06:02;20.70;99.90
11093;DHT22;5600;50.864;6.102;2022-10-17T14:09:06;20.70;99.90
11093;DHT22;5600;50.864;6.102;2022-10-17T14:12:18;20.70;99.90
11093;DHT22;5600;50.864;6.102;2022-10-17T14:15:22;20.70;99.90
11093;DHT22;5600;50.864;6.102;2022-10-17T14:18:30;20.50;99.90
11093;DHT22;5600;50.864;6.102;2022-10-17T14:21:32;20.60;99.90
11093;DHT22;5600;50.864;6.102;2022-10-17T14:24:34;20.60;99.90
11093;DHT22;5600;50.864;6.102;2022-10-17T14:27:36;20.60;99.90
11093;DHT22;5600;50.864;6.102;2022-10-17T14:30:41;20.60;99.90
11093;DHT22;5600;50.864;6.102;2022-10-17T14:33:47;20.50;99.90
11093;DHT22;5600;50.864;6.102;2022-10-17T14:36:50;20.50;99.90
11093;DHT22;5600;50.864;6.102;2022-10-17T14:39:52;20.40;99.90
11093;DHT22;5600;50.864;6.102;2022-10-17T14:42:56;20.40;99.90
11093;DHT22;5600;50.864;6.102;2022-10-17T14:46:00;20.30;99.90
11093;DHT22;5600;50.864;6.102;2022-10-17T14:49:07;20.30;99.90
11093;DHT22;5600;50.864;6.102;2022-10-17T14:55:25;20.10;99.90
11093;DHT22;5600;50.864;6.102;2022-10-17T14:58:28;20.00;99.90
11093;DHT22;5600;50.864;6.102;2022-10-17T15:01:33;19.90;99.90
11093;DHT22;5600;50.864;6.102;2022-10-17T15:04:34;19.90;99.90
11093;DHT22;5600;50.864;6.102;2022-10-17T15:07:35;19.80;99.90
11093;DHT22;5600;50.864;6.102;2022-10-17T15:10:36;19.70;99.90
11093;DHT22;5600;50.864;6.102;2022-10-17T15:13:41;19.60;99.90
11093;DHT22;5600;50.864;6.102;2022-10-17T15:16:41;19.60;99.90
11093;DHT22;5600;50.864;6.102;2022-10-17T15:19:42;19.60;99.90
11093;DHT22;5600;50.864;6.102;2022-10-17T15:22:43;19.50;99.90
11093;DHT22;5600;50.864;6.102;2022-10-17T15:25:44;19.30;99.90
11093;DHT22;5600;50.864;6.102;2022-10-17T15:28:46;19.20;99.90
11093;DHT22;5600;50.864;6.102;2022-10-17T15:31:47;18.70;99.90
11093;DHT22;5600;50.864;6.102;2022-10-17T15:34:48;18.60;99.90
11093;DHT22;5600;50.864;6.102;2022-10-17T15:37:49;18.60;99.90
11093;DHT22;5600;50.864;6.102;2022-10-17T15:40:49;18.50;99.90
11093;DHT22;5600;50.864;6.102;2022-10-17T15:43:51;18.40;99.90
11093;DHT22;5600;50.864;6.102;2022-10-17T15:46:52;18.30;99.90
11093;DHT22;5600;50.864;6.102;2022-10-17T15:49:55;18.30;99.90
11093;DHT22;5600;50.864;6.102;2022-10-17T15:52:56;18.20;99.90
11093;DHT22;5600;50.864;6.102;2022-10-17T15:55:58;18.10;99.90
11093;DHT22;5600;50.864;6.102;2022-10-17T15:59:04;18.10;99.90
11093;DHT22;5600;50.864;6.102;2022-10-17T16:02:12;18.10;99.90
11093;DHT22;5600;50.864;6.102;2022-10-17T16:05:16;18.00;99.90
11093;DHT22;5600;50.864;6.102;2022-10-17T16:08:17;17.90;99.90
11093;DHT22;5600;50.864;6.102;2022-10-17T16:11:30;17.90;99.90
11093;DHT22;5600;50.864;6.102;2022-10-17T16:14:32;17.80;99.90
11093;DHT22;5600;50.864;6.102;2022-10-17T16:17:32;17.70;99.90
11093;DHT22;5600;50.864;6.102;2022-10-17T16:20:33;17.70;99.90
11093;DHT22;5600;50.864;6.102;2022-10-17T16:23:34;17.60;99.90
11093;DHT22;5600;50.864;6.102;2022-10-17T16:26:34;17.50;99.90
11093;DHT22;5600;50.864;6.102;2022-10-17T16:29:35;17.50;99.90
11093;DHT22;5600;50.864;6.102;2022-10-17T16:32:36;17.30;99.90
11093;DHT22;5600;50.864;6.102;2022-10-17T16:35:37;17.30;99.90
11093;DHT22;5600;50.864;6.102;2022-10-17T16:38:37;17.30;99.90
11093;DHT22;5600;50.864;6.102;2022-10-17T16:41:38;17.20;99.90
11093;DHT22;5600;50.864;6.102;2022-10-17T16:44:39;17.20;99.90
11093;DHT22;5600;50.864;6.102;2022-10-17T16:47:39;17.10;99.90
11093;DHT22;5600;50.864;6.102;2022-10-17T16:50:40;17.10;99.90
11093;DHT22;5600;50.864;6.102;2022-10-17T16:53:41;17.00;99.90
11093;DHT22;5600;50.864;6.102;2022-10-17T16:56:44;17.00;99.90
11093;DHT22;5600;50.864;6.102;2022-10-17T16:59:44;17.00;99.90
11093;DHT22;5600;50.864;6.102;2022-10-17T17:02:46;17.00;99.90
11093;DHT22;5600;50.864;6.102;2022-10-17T17:05:50;16.90;99.90
11093;DHT22;5600;50.864;6.102;2022-10-17T17:08:52;17.00;99.90
11093;DHT22;5600;50.864;6.102;2022-10-17T17:11:53;17.10;99.90
11093;DHT22;5600;50.864;6.102;2022-10-17T17:14:54;17.00;99.90
11093;DHT22;5600;50.864;6.102;2022-10-17T17:17:54;16.90;99.90
11093;DHT22;5600;50.864;6.102;2022-10-17T17:20:59;17.00;99.90
11093;DHT22;5600;50.864;6.102;2022-10-17T17:24:02;17.10;99.90
11093;DHT22;5600;50.864;6.102;2022-10-17T17:27:03;17.00;99.90
11093;DHT22;5600;50.864;6.102;2022-10-17T17:30:04;16.90;99.90
11093;DHT22;5600;50.864;6.102;2022-10-17T17:33:05;17.00;99.90
11093;DHT22;5600;50.864;6.102;2022-10-17T17:36:07;16.80;99.90
11093;DHT22;5600;50.864;6.102;2022-10-17T17:39:11;16.80;99.90
11093;DHT22;5600;50.864;6.102;2022-10-17T17:42:12;16.70;99.90
11093;DHT22;5600;50.864;6.102;2022-10-17T17:45:12;16.60;99.90
11093;DHT22;5600;50.864;6.102;2022-10-17T17:48:13;16.70;99.90
11093;DHT22;5600;50.864;6.102;2022-10-17T17:51:17;16.50;99.90
11093;DHT22;5600;50.864;6.102;2022-10-17T17:54:18;16.50;99.90
11093;DHT22;5600;50.864;6.102;2022-10-17T17:57:18;16.40;99.90
11093;DHT22;5600;50.864;6.102;2022-10-17T18:00:19;16.30;99.90
11093;DHT22;5600;50.864;6.102;2022-10-17T18:03:19;16.30;99.90
11093;DHT22;5600;50.864;6.102;2022-10-17T18:06:21;16.20;99.90
11093;DHT22;5600;50.864;6.102;2022-10-17T18:09:22;16.20;99.90
11093;DHT22;5600;50.864;6.102;2022-10-17T18:12:23;16.20;99.90
11093;DHT22;5600;50.864;6.102;2022-10-17T18:15:24;16.10;99.90
11093;DHT22;5600;50.864;6.102;2022-10-17T18:18:25;16.10;99.90
11093;DHT22;5600;50.864;6.102;2022-10-17T18:21:27;16.00;99.90
11093;DHT22;5600;50.864;6.102;2022-10-17T18:24:27;15.90;99.90
11093;DHT22;5600;50.864;6.102;2022-10-17T18:27:28;15.90;99.90
11093;DHT22;5600;50.864;6.102;2022-10-17T18:30:29;15.90;99.90
11093;DHT22;5600;50.864;6.102;2022-10-17T18:33:29;15.90;99.90
11093;DHT22;5600;50.864;6.102;2022-10-17T18:36:31;15.80;99.90
11093;DHT22;5600;50.864;6.102;2022-10-17T18:39:32;15.80;99.90
11093;DHT22;5600;50.864;6.102;2022-10-17T18:42:33;15.90;99.90
11093;DHT22;5600;50.864;6.102;2022-10-17T18:45:35;15.80;99.90
11093;DHT22;5600;50.864;6.102;2022-10-17T18:48:38;15.90;99.90
11093;DHT22;5600;50.864;6.102;2022-10-17T18:51:40;15.70;99.90
11093;DHT22;5600;50.864;6.102;2022-10-17T18:54:40;15.70;99.90
11093;DHT22;5600;50.864;6.102;2022-10-17T18:57:41;15.60;99.90
11093;DHT22;5600;50.864;6.102;2022-10-17T19:00:42;15.60;99.90
11093;DHT22;5600;50.864;6.102;2022-10-17T19:03:46;15.60;99.90
11093;DHT22;5600;50.864;6.102;2022-10-17T19:06:47;15.50;99.90
11093;DHT22;5600;50.864;6.102;2022-10-17T19:09:48;15.50;99.90
11093;DHT22;5600;50.864;6.102;2022-10-17T19:12:49;15.50;99.90
11093;DHT22;5600;50.864;6.102;2022-10-17T19:15:49;15.50;99.90
11093;DHT22;5600;50.864;6.102;2022-10-17T19:18:52;15.50;99.90
11093;DHT22;5600;50.864;6.102;2022-10-17T19:21:53;15.50;99.90
11093;DHT22;5600;50.864;6.102;2022-10-17T19:24:53;15.40;99.90
11093;DHT22;5600;50.864;6.102;2022-10-17T19:27:55;15.50;99.90
11093;DHT22;5600;50.864;6.102;2022-10-17T19:30:55;15.50;99.90
11093;DHT22;5600;50.864;6.102;2022-10-17T19:33:56;15.40;99.90
11093;DHT22;5600;50.864;6.102;2022-10-17T19:36:57;15.40;99.90
11093;DHT22;5600;50.864;6.102;2022-10-17T19:39:58;15.30;99.90
11093;DHT22;5600;50.864;6.102;2022-10-17T19:42:59;15.20;99.90
11093;DHT22;5600;50.864;6.102;2022-10-17T19:46:00;15.20;99.90
11093;DHT22;5600;50.864;6.102;2022-10-17T19:49:02;15.20;99.90
11093;DHT22;5600;50.864;6.102;2022-10-17T19:52:03;15.10;99.90
11093;DHT22;5600;50.864;6.102;2022-10-17T19:55:04;15.10;99.90
11093;DHT22;5600;50.864;6.102;2022-10-17T19:58:05;15.10;99.90
11093;DHT22;5600;50.864;6.102;2022-10-17T20:01:06;15.10;99.90
11093;DHT22;5600;50.864;6.102;2022-10-17T20:04:07;15.00;99.90
11093;DHT22;5600;50.864;6.102;2022-10-17T20:07:08;15.00;99.90
11093;DHT22;5600;50.864;6.102;2022-10-17T20:10:09;15.00;99.90
11093;DHT22;5600;50.864;6.102;2022-10-17T20:13:10;15.00;99.90
11093;DHT22;5600;50.864;6.102;2022-10-17T20:16:13;14.90;99.90
11093;DHT22;5600;50.864;6.102;2022-10-17T20:19:14;14.90;99.90
11093;DHT22;5600;50.864;6.102;2022-10-17T20:22:15;14.90;99.90
11093;DHT22;5600;50.864;6.102;2022-10-17T20:25:16;15.00;99.90
11093;DHT22;5600;50.864;6.102;2022-10-17T20:28:16;15.00;99.90
11093;DHT22;5600;50.864;6.102;2022-10-17T20:31:18;14.90;99.90
11093;DHT22;5600;50.864;6.102;2022-10-17T20:34:18;14.90;99.90
11093;DHT22;5600;50.864;6.102;2022-10-17T20:37:19;15.00;99.90
11093;DHT22;5600;50.864;6.102;2022-10-17T20:40:21;15.00;99.90
11093;DHT22;5600;50.864;6.102;2022-10-17T20:43:21;15.00;99.90
11093;DHT22;5600;50.864;6.102;2022-10-17T20:46:23;15.00;99.90
11093;DHT22;5600;50.864;6.102;2022-10-17T20:49:25;14.90;99.90
11093;DHT22;5600;50.864;6.102;2022-10-17T20:52:25;14.90;99.90
11093;DHT22;5600;50.864;6.102;2022-10-17T20:55:26;14.80;99.90
11093;DHT22;5600;50.864;6.102;2022-10-17T20:58:27;14.80;99.90
11093;DHT22;5600;50.864;6.102;2022-10-17T21:01:29;14.80;99.90
11093;DHT22;5600;50.864;6.102;2022-10-17T21:04:30;14.80;99.90
11093;DHT22;5600;50.864;6.102;2022-10-17T21:07:31;14.70;99.90
11093;DHT22;5600;50.864;6.102;2022-10-17T21:10:32;14.70;99.90
11093;DHT22;5600;50.864;6.102;2022-10-17T21:13:33;14.70;99.90
11093;DHT22;5600;50.864;6.102;2022-10-17T21:16:35;14.70;99.90